Time;durP1;ratioP1;P1;durP2;ratioP2;P2;SDS_P1;SDS_P2;PMS_P1;PMS_P2;Temp;Humidity;BMP_temperature;BMP_pressure;BME280_temperature;BME280_humidity;BME280_pressure;Samples;Min_cycle;Max_cycle;Signal;HPM_P1;HPM_P2
2022/02/15 00:02:07;;;;;;;3.78;2.75;;;5.80;99.90;;;;;;5109852;28;20032;-56
2022/02/15 00:04:33;;;;;;;6.43;3.30;;;5.80;99.90;;;;;;5095003;28;20032;-55
2022/02/15 00:06:58;;;;;;;8.85;2.65;;;5.70;99.90;;;;;;5090961;28;20028;-56
2022/02/15 00:09:24;;;;;;;5.65;2.92;;;5.80;99.90;;;;;;5089607;28;20425;-57
2022/02/15 00:11:49;;;;;;;6.57;4.32;;;5.80;99.90;;;;;;5106197;28;20066;-55
2022/02/15 00:14:15;;;;;;;5.43;3.03;;;5.70;99.90;;;;;;5108915;28;20050;-52
2022/02/15 00:16:41;;;;;;;5.35;2.40;;;5.80;99.90;;;;;;5091481;28;20024;-53
2022/02/15 00:19:06;;;;;;;5.03;2.75;;;5.90;99.90;;;;;;5090671;28;20020;-54
2022/02/15 00:21:33;;;;;;;4.30;2.83;;;6.00;99.90;;;;;;5091891;28;20024;-55
2022/02/15 00:23:58;;;;;;;4.93;3.10;;;6.00;99.90;;;;;;5090722;28;20154;-54
2022/02/15 00:26:24;;;;;;;3.92;2.80;;;6.10;99.90;;;;;;5099766;28;20122;-54
2022/02/15 00:28:50;;;;;;;5.10;2.83;;;6.10;99.90;;;;;;5095860;28;20032;-52
2022/02/15 00:31:15;;;;;;;4.22;3.03;;;6.10;99.90;;;;;;5093833;28;20032;-56
2022/02/15 00:33:41;;;;;;;6.05;2.50;;;6.10;99.90;;;;;;5091034;28;20028;-55
2022/02/15 00:36:07;;;;;;;2.97;2.35;;;6.10;99.90;;;;;;5089583;28;20036;-55
2022/02/15 00:38:32;;;;;;;5.72;2.55;;;6.10;99.90;;;;;;5090076;28;20388;-54
2022/02/15 00:40:58;;;;;;;6.80;2.78;;;6.20;99.90;;;;;;5090390;28;20270;-55
2022/02/15 00:43:23;;;;;;;4.13;2.10;;;6.20;99.90;;;;;;5098706;28;20023;-55
2022/02/15 00:45:49;;;;;;;5.65;2.83;;;6.30;99.90;;;;;;5110159;28;20032;-56
2022/02/15 00:48:15;;;;;;;6.90;2.83;;;6.30;99.90;;;;;;5098460;28;20042;-50
2022/02/15 00:50:40;;;;;;;5.72;3.30;;;6.40;99.90;;;;;;5100990;28;20039;-54
2022/02/15 00:53:06;;;;;;;5.47;3.65;;;6.50;99.90;;;;;;5109615;28;20209;-53
2022/02/15 00:55:31;;;;;;;8.80;3.45;;;6.60;99.90;;;;;;5095263;28;20036;-54
2022/02/15 00:57:57;;;;;;;6.43;3.30;;;6.60;99.90;;;;;;5091496;28;20550;-53
2022/02/15 01:00:22;;;;;;;7.07;4.00;;;6.70;99.90;;;;;;5055924;28;20034;-54
2022/02/15 01:02:48;;;;;;;6.70;3.72;;;6.80;99.90;;;;;;5096662;28;20032;-56
2022/02/15 01:05:14;;;;;;;7.00;4.97;;;6.70;99.90;;;;;;5110627;28;20034;-55
2022/02/15 01:07:40;;;;;;;4.70;3.33;;;6.80;99.90;;;;;;5109827;28;20058;-53
2022/02/15 01:10:06;;;;;;;8.13;4.25;;;6.80;99.90;;;;;;5108453;28;20029;-56
2022/02/15 01:12:32;;;;;;;3.90;3.05;;;6.80;99.90;;;;;;5105038;28;20072;-58
2022/02/15 01:14:58;;;;;;;5.75;4.05;;;6.90;99.90;;;;;;5109869;28;20445;-53
2022/02/15 01:17:24;;;;;;;5.70;3.42;;;7.00;99.90;;;;;;5109958;28;20028;-56
2022/02/15 01:19:49;;;;;;;5.43;3.33;;;7.10;99.90;;;;;;5096385;28;20106;-57
2022/02/15 01:22:15;;;;;;;4.85;3.42;;;7.10;99.90;;;;;;5109390;28;20716;-57
2022/02/15 01:24:41;;;;;;;8.50;3.83;;;7.10;99.90;;;;;;5108035;28;20032;-52
2022/02/15 01:27:06;;;;;;;4.60;3.40;;;7.10;99.90;;;;;;5092948;28;20070;-57
2022/02/15 01:29:32;;;;;;;4.57;3.55;;;7.00;99.90;;;;;;5106530;28;20039;-52
2022/02/15 01:31:58;;;;;;;5.20;3.90;;;7.00;99.90;;;;;;5109355;28;20032;-57
2022/02/15 01:34:23;;;;;;;6.55;4.05;;;7.10;99.90;;;;;;5091225;28;20027;-56
2022/02/15 01:36:49;;;;;;;5.97;3.47;;;7.10;99.90;;;;;;5099592;28;20036;-58
2022/02/15 01:39:14;;;;;;;5.43;3.70;;;7.00;99.90;;;;;;5104041;28;20510;-58
2022/02/15 01:41:40;;;;;;;8.95;4.15;;;7.00;99.90;;;;;;5110008;28;20102;-57
2022/02/15 01:44:06;;;;;;;9.02;4.60;;;7.00;99.90;;;;;;5101252;28;20124;-53
2022/02/15 01:46:32;;;;;;;8.32;4.28;;;7.00;99.90;;;;;;5089444;28;20039;-51
2022/02/15 01:48:58;;;;;;;7.13;3.83;;;7.00;99.90;;;;;;5089014;28;20082;-53
2022/02/15 01:51:26;;;;;;;5.22;4.07;;;7.00;99.90;;;;;;5088518;28;20063;-53
2022/02/15 01:53:52;;;;;;;7.22;3.75;;;7.10;99.90;;;;;;5089045;28;20028;-54
2022/02/15 01:56:18;;;;;;;6.03;4.53;;;7.10;99.90;;;;;;5088885;28;20036;-56
2022/02/15 01:58:44;;;;;;;6.32;4.40;;;7.10;99.90;;;;;;5087094;28;20032;-57
2022/02/15 02:01:10;;;;;;;7.38;4.80;;;7.10;99.90;;;;;;5086807;28;20036;-56
2022/02/15 02:03:35;;;;;;;5.43;4.25;;;7.10;99.90;;;;;;5086238;28;20064;-54
2022/02/15 02:06:01;;;;;;;5.05;4.55;;;7.10;99.90;;;;;;5089064;28;20042;-52
2022/02/15 02:08:29;;;;;;;6.45;4.68;;;7.10;99.90;;;;;;5093469;28;20039;-53
2022/02/15 02:10:55;;;;;;;8.45;5.95;;;7.10;99.90;;;;;;5093469;28;20035;-54
2022/02/15 02:13:22;;;;;;;7.50;5.30;;;7.10;99.90;;;;;;5093172;28;20024;-54
2022/02/15 02:15:48;;;;;;;6.28;5.20;;;7.00;99.90;;;;;;5093041;28;20032;-54
2022/02/15 02:18:14;;;;;;;8.27;5.13;;;6.90;99.90;;;;;;5093192;28;20064;-57
2022/02/15 02:20:41;;;;;;;6.75;5.65;;;6.90;99.90;;;;;;5092977;28;20028;-52
2022/02/15 02:23:11;;;;;;;8.88;6.25;;;6.80;99.90;;;;;;5074745;28;20493;-52
2022/02/15 02:25:37;;;;;;;10.60;6.07;;;6.70;99.90;;;;;;5074995;28;20387;-56
2022/02/15 02:28:03;;;;;;;7.05;4.78;;;6.60;99.90;;;;;;5093199;28;20040;-54
2022/02/15 02:30:29;;;;;;;7.72;3.85;;;6.50;99.90;;;;;;5092777;28;20059;-55
2022/02/15 02:32:54;;;;;;;6.32;3.03;;;6.50;99.90;;;;;;5092212;28;20036;-56
2022/02/15 02:35:21;;;;;;;3.70;3.00;;;6.40;99.90;;;;;;5092649;28;20039;-55
2022/02/15 02:37:48;;;;;;;5.45;3.53;;;6.40;99.90;;;;;;5092629;28;20051;-54
2022/02/15 02:40:14;;;;;;;6.50;3.00;;;6.30;99.90;;;;;;5092780;28;20036;-58
2022/02/15 02:42:40;;;;;;;2.67;2.22;;;6.30;99.90;;;;;;5092181;28;20020;-53
2022/02/15 02:45:18;;;;;;;3.95;2.90;;;6.30;99.90;;;;;;5099049;28;20051;-58
2022/02/15 02:47:45;;;;;;;4.13;3.10;;;6.30;99.90;;;;;;5111634;28;20073;-54
2022/02/15 02:50:12;;;;;;;5.35;3.30;;;6.30;99.90;;;;;;5105710;28;20031;-55
2022/02/15 02:52:38;;;;;;;5.43;3.45;;;6.30;99.90;;;;;;5093825;28;20044;-53
2022/02/15 02:55:05;;;;;;;3.67;2.92;;;6.30;99.90;;;;;;5093788;28;20035;-57
2022/02/15 02:57:30;;;;;;;6.20;3.33;;;6.30;99.90;;;;;;5092632;28;20036;-52
2022/02/15 02:59:56;;;;;;;3.83;2.92;;;6.20;99.90;;;;;;5093741;28;20036;-52
2022/02/15 03:02:22;;;;;;;3.35;3.03;;;6.20;99.90;;;;;;5092295;28;20059;-55
2022/02/15 03:04:47;;;;;;;5.93;3.30;;;6.10;99.90;;;;;;5092655;28;20379;-54
2022/02/15 03:07:13;;;;;;;4.97;2.63;;;6.10;99.90;;;;;;5092174;28;20031;-55
2022/02/15 03:09:39;;;;;;;5.30;2.75;;;6.20;99.90;;;;;;5101072;28;20043;-55
2022/02/15 03:12:06;;;;;;;5.35;2.75;;;6.10;99.90;;;;;;5091943;28;20032;-52
2022/02/15 03:14:31;;;;;;;4.05;2.95;;;6.20;99.90;;;;;;5074299;28;20103;-57
2022/02/15 03:16:57;;;;;;;4.70;3.03;;;6.20;99.90;;;;;;5073986;28;20118;-54
2022/02/15 03:19:23;;;;;;;3.67;3.08;;;6.20;99.90;;;;;;5090919;28;20027;-54
2022/02/15 03:21:48;;;;;;;3.25;2.70;;;6.20;99.90;;;;;;5093429;28;20035;-53
2022/02/15 03:24:14;;;;;;;3.85;2.67;;;6.20;99.90;;;;;;5101691;28;20024;-57
2022/02/15 03:26:42;;;;;;;5.70;3.00;;;6.20;99.90;;;;;;5127664;22;20040;-53
2022/02/15 03:29:10;;;;;;;2.90;2.65;;;6.20;99.90;;;;;;5068194;28;20059;-54
2022/02/15 03:31:37;;;;;;;3.83;2.85;;;6.20;99.90;;;;;;5071763;28;20016;-53
2022/02/15 03:34:03;;;;;;;3.42;2.65;;;6.20;99.90;;;;;;5071137;28;20021;-53
2022/02/15 03:36:28;;;;;;;3.08;2.67;;;6.20;99.90;;;;;;5071323;28;20052;-54
2022/02/15 03:38:54;;;;;;;3.53;2.90;;;6.20;99.90;;;;;;5053491;28;20064;-51
2022/02/15 03:44:04;;;;;;;2.90;2.65;;;6.20;99.90;;;;;;5050320;28;20032;-52
2022/02/15 03:46:30;;;;;;;3.58;2.53;;;6.20;99.90;;;;;;5067038;28;20036;-52
2022/02/15 03:48:55;;;;;;;2.70;2.45;;;6.20;99.90;;;;;;5070155;28;20036;-53
2022/02/15 03:51:21;;;;;;;3.95;2.90;;;6.20;99.90;;;;;;5053682;28;20033;-52
2022/02/15 03:53:47;;;;;;;3.88;2.85;;;6.20;99.90;;;;;;5054397;28;20106;-54
2022/02/15 03:56:13;;;;;;;4.00;2.60;;;6.20;99.90;;;;;;5050532;28;20029;-54
2022/02/15 03:58:40;;;;;;;2.92;2.60;;;6.20;99.90;;;;;;5052253;28;20025;-52
2022/02/15 04:01:05;;;;;;;3.92;3.00;;;6.20;99.90;;;;;;5050847;28;20500;-52
2022/02/15 04:03:31;;;;;;;3.83;2.80;;;6.20;99.90;;;;;;5050250;28;20025;-53
2022/02/15 04:05:57;;;;;;;2.45;2.22;;;6.20;99.90;;;;;;5062553;28;20063;-51
2022/02/15 04:08:23;;;;;;;5.18;2.35;;;6.20;99.90;;;;;;5051918;28;20071;-55
2022/02/15 04:10:49;;;;;;;2.47;2.28;;;6.20;99.90;;;;;;5051050;28;20112;-52
2022/02/15 04:13:16;;;;;;;4.80;2.80;;;6.10;99.90;;;;;;5050574;28;20025;-52
2022/02/15 04:15:42;;;;;;;4.28;2.17;;;6.10;99.90;;;;;;5050863;28;20119;-54
2022/02/15 04:18:07;;;;;;;3.63;2.28;;;6.10;99.90;;;;;;5050392;28;20138;-54
2022/02/15 04:20:33;;;;;;;2.65;2.10;;;6.10;99.90;;;;;;5049039;28;20044;-57
2022/02/15 04:22:58;;;;;;;3.35;2.25;;;6.00;99.90;;;;;;5051326;28;20036;-54
2022/02/15 04:25:24;;;;;;;2.75;2.05;;;6.00;99.90;;;;;;5051511;28;20025;-53
2022/02/15 04:27:50;;;;;;;5.05;2.25;;;6.00;99.90;;;;;;5073576;28;20043;-55
2022/02/15 04:30:16;;;;;;;2.67;1.95;;;5.90;99.90;;;;;;5070068;28;20029;-53
2022/02/15 04:32:41;;;;;;;2.20;1.75;;;6.00;99.90;;;;;;5069937;28;20441;-52
2022/02/15 04:35:08;;;;;;;3.47;2.30;;;5.90;99.90;;;;;;5071027;28;20111;-54
2022/02/15 04:37:34;;;;;;;2.63;1.85;;;5.90;99.90;;;;;;5086716;28;20053;-52
2022/02/15 04:39:59;;;;;;;5.63;2.40;;;5.90;99.90;;;;;;5072083;28;20020;-51
2022/02/15 04:42:25;;;;;;;4.95;2.45;;;5.90;99.90;;;;;;5087890;28;20024;-50
2022/02/15 04:44:50;;;;;;;4.00;1.88;;;5.90;99.90;;;;;;5068653;28;20028;-53
2022/02/15 04:47:16;;;;;;;3.05;2.35;;;5.90;99.90;;;;;;5071864;28;20024;-52
2022/02/15 04:49:42;;;;;;;4.82;2.58;;;5.90;99.90;;;;;;5086927;28;20027;-55
2022/02/15 04:52:07;;;;;;;2.63;2.28;;;5.80;99.90;;;;;;5090288;28;20032;-52
2022/02/15 04:54:34;;;;;;;4.38;2.80;;;5.90;99.90;;;;;;5082690;28;20028;-53
2022/02/15 04:56:59;;;;;;;3.55;2.20;;;5.80;99.90;;;;;;5070158;28;20024;-54
2022/02/15 04:59:25;;;;;;;6.25;2.30;;;5.80;99.90;;;;;;5075347;28;20198;-53
2022/02/15 05:01:51;;;;;;;4.40;2.35;;;5.80;99.90;;;;;;5071152;28;20024;-54
2022/02/15 05:07:01;;;;;;;6.70;2.78;;;5.70;99.90;;;;;;5088676;28;20043;-53
2022/02/15 05:09:27;;;;;;;2.67;2.15;;;5.70;99.90;;;;;;5068247;28;20032;-54
2022/02/15 05:11:53;;;;;;;3.40;2.20;;;5.70;99.90;;;;;;5089862;28;20028;-50
2022/02/15 05:14:19;;;;;;;2.63;2.15;;;5.70;99.90;;;;;;5089758;28;20032;-58
2022/02/15 05:16:44;;;;;;;5.97;2.60;;;5.60;99.90;;;;;;5090100;28;20019;-50
2022/02/15 05:19:10;;;;;;;5.93;2.58;;;5.60;99.90;;;;;;5089818;28;20039;-53
2022/02/15 05:21:36;;;;;;;3.80;2.35;;;5.60;99.90;;;;;;5068099;28;20024;-54
2022/02/15 05:24:01;;;;;;;5.00;2.63;;;5.60;99.90;;;;;;5069595;28;20032;-51
2022/02/15 05:26:27;;;;;;;4.22;3.00;;;5.70;99.90;;;;;;5079494;28;20038;-55
2022/02/15 05:28:52;;;;;;;6.60;2.75;;;5.60;99.90;;;;;;5069618;28;20102;-51
2022/02/15 05:31:18;;;;;;;7.85;3.22;;;5.60;99.90;;;;;;5079080;28;20046;-53
2022/02/15 05:33:44;;;;;;;5.10;2.83;;;5.60;99.90;;;;;;5080410;28;20032;-51
2022/02/15 05:36:09;;;;;;;7.97;3.13;;;5.60;99.90;;;;;;5070100;28;20393;-52
2022/02/15 05:38:35;;;;;;;5.70;3.10;;;5.60;99.90;;;;;;5069551;28;20028;-56
2022/02/15 05:41:00;;;;;;;4.95;2.90;;;5.60;99.90;;;;;;5068745;28;20028;-56
2022/02/15 05:43:26;;;;;;;13.40;3.33;;;5.60;99.90;;;;;;5073616;28;20063;-53
2022/02/15 05:45:52;;;;;;;5.50;2.80;;;5.50;99.90;;;;;;5069520;28;20491;-53
2022/02/15 05:48:18;;;;;;;4.93;2.58;;;5.50;99.90;;;;;;5069311;28;20116;-54
2022/02/15 05:50:49;;;;;;;8.35;3.22;;;5.50;99.90;;;;;;5068894;28;20024;-57
2022/02/15 05:53:23;;;;;;;5.60;2.67;;;5.50;99.90;;;;;;5087946;28;20036;-54
2022/02/15 05:55:52;;;;;;;8.60;2.97;;;5.60;99.90;;;;;;5089134;28;20027;-53
2022/02/15 05:58:18;;;;;;;7.00;3.42;;;5.60;99.90;;;;;;5072008;28;20355;-52
2022/02/15 06:00:44;;;;;;;3.33;2.90;;;5.60;99.90;;;;;;5069598;28;20029;-52
2022/02/15 06:05:54;;;;;;;6.60;2.70;;;5.60;99.90;;;;;;5069818;28;20078;-53
2022/02/15 06:08:19;;;;;;;6.03;2.97;;;5.60;99.90;;;;;;5072287;28;20037;-52
2022/02/15 06:10:46;;;;;;;10.75;3.85;;;5.60;99.90;;;;;;5069114;28;20380;-50
2022/02/15 06:13:13;;;;;;;4.60;2.33;;;5.50;99.90;;;;;;5068921;28;20032;-53
2022/02/15 06:15:38;;;;;;;3.67;2.88;;;5.60;99.90;;;;;;5068745;28;20496;-52
2022/02/15 06:18:04;;;;;;;6.47;3.03;;;5.50;99.90;;;;;;5068736;28;20031;-54
2022/02/15 06:20:29;;;;;;;2.90;2.58;;;5.50;99.90;;;;;;5046257;28;20413;-52
2022/02/15 06:22:55;;;;;;;5.18;3.22;;;5.50;99.90;;;;;;5089030;28;20036;-53
2022/02/15 06:25:21;;;;;;;5.55;3.33;;;5.50;99.90;;;;;;5078810;28;20369;-54
2022/02/15 06:27:47;;;;;;;5.18;2.78;;;5.50;99.90;;;;;;5069220;28;20071;-52
2022/02/15 06:30:12;;;;;;;6.05;2.97;;;5.50;99.90;;;;;;5068921;28;20040;-52
2022/02/15 06:32:38;;;;;;;4.80;3.33;;;5.50;99.90;;;;;;5068457;28;20476;-52
2022/02/15 06:35:04;;;;;;;5.03;3.25;;;5.50;99.90;;;;;;5076091;28;20028;-52
2022/02/15 06:37:30;;;;;;;5.72;3.55;;;5.50;99.90;;;;;;5089299;28;20413;-53
2022/02/15 06:39:55;;;;;;;4.00;3.22;;;5.50;99.90;;;;;;5089110;28;20024;-51
2022/02/15 06:42:21;;;;;;;4.95;3.53;;;5.50;99.90;;;;;;5070893;28;20085;-54
2022/02/15 06:44:47;;;;;;;6.85;3.40;;;5.50;99.90;;;;;;5074485;28;20036;-51
2022/02/15 06:47:12;;;;;;;10.35;3.65;;;5.50;99.90;;;;;;5068744;28;20032;-50
2022/02/15 06:49:38;;;;;;;6.70;3.67;;;5.50;99.90;;;;;;5068634;28;20099;-52
2022/02/15 06:52:04;;;;;;;6.95;3.58;;;5.50;99.90;;;;;;5083224;28;20128;-52
2022/02/15 06:54:30;;;;;;;7.70;3.67;;;5.50;99.90;;;;;;5093090;28;20297;-52
2022/02/15 06:56:55;;;;;;;7.40;3.50;;;5.50;99.90;;;;;;5092450;28;20032;-52
2022/02/15 06:59:21;;;;;;;10.68;4.55;;;5.50;99.90;;;;;;5089519;28;20032;-52
2022/02/15 07:01:46;;;;;;;7.32;4.10;;;5.50;99.90;;;;;;5084406;28;20036;-52
2022/02/15 07:04:12;;;;;;;9.77;4.28;;;5.50;99.90;;;;;;5082399;28;20039;-53
2022/02/15 07:06:39;;;;;;;5.57;4.20;;;5.50;99.90;;;;;;5072408;28;20059;-52
2022/02/15 07:09:05;;;;;;;6.60;4.32;;;5.50;99.90;;;;;;5072717;28;20419;-49
2022/02/15 07:11:30;;;;;;;5.18;3.90;;;5.50;99.90;;;;;;5073468;28;20039;-51
2022/02/15 07:13:56;;;;;;;5.82;4.35;;;5.50;99.90;;;;;;5069995;28;20305;-52
2022/02/15 07:16:22;;;;;;;7.60;4.72;;;5.50;99.90;;;;;;5071970;28;20098;-52
2022/02/15 07:18:47;;;;;;;7.95;4.30;;;5.50;99.90;;;;;;5071984;28;20099;-50
2022/02/15 07:21:14;;;;;;;8.75;4.65;;;5.40;99.90;;;;;;5073379;28;20027;-53
2022/02/15 07:23:40;;;;;;;7.35;4.65;;;5.40;99.90;;;;;;5071732;28;20447;-52
2022/02/15 07:26:05;;;;;;;9.95;4.78;;;5.50;99.90;;;;;;5073643;28;20024;-51
2022/02/15 07:28:31;;;;;;;10.50;5.50;;;5.50;99.90;;;;;;5090778;28;20046;-49
2022/02/15 07:30:56;;;;;;;6.47;5.07;;;5.50;99.90;;;;;;5090492;28;20078;-51
2022/02/15 07:33:22;;;;;;;7.35;4.85;;;5.50;99.90;;;;;;5091744;28;20032;-53
2022/02/15 07:35:48;;;;;;;8.65;4.88;;;5.50;99.90;;;;;;5083637;28;20035;-52
2022/02/15 07:38:14;;;;;;;9.48;5.03;;;5.50;99.90;;;;;;5071956;28;20472;-51
2022/02/15 07:40:40;;;;;;;12.40;5.97;;;5.50;99.90;;;;;;5082115;28;20040;-51
2022/02/15 07:43:05;;;;;;;13.40;6.55;;;5.60;99.90;;;;;;5091613;28;20024;-51
2022/02/15 07:45:31;;;;;;;12.10;5.70;;;5.50;99.90;;;;;;5091381;28;20419;-52
2022/02/15 07:47:57;;;;;;;9.30;5.28;;;5.60;99.90;;;;;;5081650;28;20024;-52
2022/02/15 07:50:23;;;;;;;8.65;5.13;;;5.60;99.90;;;;;;5081285;28;20044;-52
2022/02/15 07:52:54;;;;;;;10.45;6.35;;;5.60;99.90;;;;;;5089491;28;20032;-51
2022/02/15 07:55:20;;;;;;;9.98;5.57;;;5.60;99.90;;;;;;5091014;28;20035;-52
2022/02/15 07:57:46;;;;;;;8.85;5.20;;;5.70;99.90;;;;;;5090937;28;20032;-50
2022/02/15 08:00:20;;;;;;;10.48;6.00;;;5.70;99.90;;;;;;5090282;28;20044;-51
2022/02/15 08:02:46;;;;;;;10.32;5.20;;;5.70;99.90;;;;;;5051321;28;20033;-51
2022/02/15 08:05:12;;;;;;;8.93;5.90;;;5.70;99.90;;;;;;5035017;28;20025;-51
2022/02/15 08:07:38;;;;;;;8.52;4.78;;;5.70;99.90;;;;;;5082529;28;20207;-53
2022/02/15 08:10:05;;;;;;;9.60;4.75;;;5.70;99.90;;;;;;5071254;28;20508;-51
2022/02/15 08:12:30;;;;;;;8.30;5.03;;;5.80;99.90;;;;;;5070608;28;20032;-53
2022/02/15 08:14:56;;;;;;;9.00;4.70;;;5.80;99.90;;;;;;5070878;28;20226;-50
2022/02/15 08:17:22;;;;;;;8.32;4.60;;;5.70;99.90;;;;;;5061312;28;20689;-52
2022/02/15 08:19:48;;;;;;;7.45;4.90;;;5.80;99.90;;;;;;5070382;28;20024;-54
2022/02/15 08:22:14;;;;;;;11.20;5.10;;;5.80;99.90;;;;;;5070498;28;20047;-51
2022/02/15 08:24:40;;;;;;;7.03;4.72;;;5.80;99.90;;;;;;5070690;28;20481;-53
2022/02/15 08:27:05;;;;;;;5.32;4.30;;;5.90;99.90;;;;;;5070725;28;20036;-52
2022/02/15 08:29:31;;;;;;;7.25;4.25;;;5.90;99.90;;;;;;5070681;28;20107;-51
2022/02/15 08:31:58;;;;;;;8.05;4.38;;;5.90;99.90;;;;;;5070517;28;20029;-54
2022/02/15 08:34:24;;;;;;;4.30;3.70;;;5.90;99.90;;;;;;5070722;28;20024;-52
2022/02/15 08:36:50;;;;;;;5.88;3.95;;;5.90;99.90;;;;;;5069682;28;20051;-53
2022/02/15 08:39:17;;;;;;;4.30;3.13;;;5.90;99.90;;;;;;5070464;28;20032;-52
2022/02/15 08:41:42;;;;;;;4.35;3.53;;;5.90;99.90;;;;;;5070385;28;20074;-52
2022/02/15 08:44:08;;;;;;;6.38;4.38;;;6.00;99.90;;;;;;5070124;28;20024;-52
2022/02/15 08:46:34;;;;;;;5.65;4.32;;;5.90;99.90;;;;;;5070617;28;20380;-50
2022/02/15 08:49:00;;;;;;;7.25;3.78;;;5.90;99.90;;;;;;5070401;28;20560;-50
2022/02/15 08:51:25;;;;;;;6.40;3.70;;;5.90;99.90;;;;;;5070505;28;20033;-51
2022/02/15 08:53:52;;;;;;;6.00;3.50;;;5.90;99.90;;;;;;5060807;28;20419;-51
2022/02/15 08:56:20;;;;;;;4.25;2.97;;;5.90;99.90;;;;;;5072100;28;20032;-50
2022/02/15 08:58:47;;;;;;;5.75;3.28;;;5.90;99.90;;;;;;5088633;28;20036;-52
2022/02/15 09:01:13;;;;;;;6.47;3.28;;;5.90;99.90;;;;;;5072347;28;20020;-53
2022/02/15 09:03:39;;;;;;;7.43;3.55;;;5.90;99.90;;;;;;5087937;28;20032;-51
2022/02/15 09:06:05;;;;;;;4.50;3.10;;;5.90;99.90;;;;;;5070501;28;20070;-55
2022/02/15 09:08:31;;;;;;;9.13;3.88;;;5.90;99.90;;;;;;5069209;28;20488;-51
2022/02/15 09:10:56;;;;;;;7.88;4.72;;;5.90;99.90;;;;;;5070174;28;20036;-50
2022/02/15 09:13:22;;;;;;;5.80;3.97;;;5.80;99.90;;;;;;5067470;28;20036;-55
2022/02/15 09:15:47;;;;;;;6.00;4.57;;;5.80;99.90;;;;;;5068517;28;20036;-51
2022/02/15 09:18:13;;;;;;;6.57;3.90;;;5.80;99.90;;;;;;5070266;28;20050;-51
2022/02/15 09:20:41;;;;;;;7.90;4.47;;;5.80;99.90;;;;;;5051580;28;20052;-53
2022/02/15 09:23:06;;;;;;;6.63;4.15;;;5.90;99.90;;;;;;5068637;28;20066;-51
2022/02/15 09:25:32;;;;;;;8.55;5.07;;;5.90;99.90;;;;;;5069907;28;20514;-52
2022/02/15 09:27:58;;;;;;;9.90;5.43;;;5.90;99.90;;;;;;5096480;23;20385;-58
2022/02/15 09:30:25;;;;;;;10.10;5.72;;;5.80;99.90;;;;;;5088902;28;20020;-59
2022/02/15 09:32:50;;;;;;;11.68;5.18;;;5.90;99.90;;;;;;5089453;28;20552;-58
2022/02/15 09:35:16;;;;;;;10.60;6.07;;;5.90;99.90;;;;;;5089348;28;20103;-60
2022/02/15 09:37:42;;;;;;;7.30;5.25;;;5.90;99.90;;;;;;5071313;28;20362;-59
2022/02/15 09:40:09;;;;;;;9.80;5.70;;;5.90;99.90;;;;;;5089644;28;20055;-56
2022/02/15 09:42:36;;;;;;;8.65;5.63;;;5.90;99.90;;;;;;5104989;28;20020;-56
2022/02/15 09:45:03;;;;;;;9.30;5.28;;;5.90;99.90;;;;;;5089644;28;20055;-57
2022/02/15 09:47:32;;;;;;;7.88;5.93;;;5.90;99.90;;;;;;5089152;28;20123;-59
2022/02/15 09:49:59;;;;;;;6.72;4.20;;;5.90;99.90;;;;;;5090511;28;20538;-59
2022/02/15 09:52:25;;;;;;;6.25;3.30;;;5.80;99.90;;;;;;5089542;28;20024;-57
2022/02/15 09:54:52;;;;;;;5.57;3.15;;;5.80;99.90;;;;;;5088869;28;20099;-54
2022/02/15 09:57:19;;;;;;;5.18;3.25;;;5.80;99.90;;;;;;5088423;28;20051;-55
2022/02/15 09:59:50;;;;;;;3.22;2.92;;;5.80;99.90;;;;;;5089318;28;20035;-56
2022/02/15 10:02:20;;;;;;;5.28;3.13;;;5.80;99.90;;;;;;5105439;28;20581;-59
2022/02/15 10:04:55;;;;;;;7.63;3.40;;;5.80;99.90;;;;;;5088969;28;20107;-58
2022/02/15 10:07:23;;;;;;;4.53;3.10;;;5.80;99.90;;;;;;5089062;28;20494;-56
2022/02/15 10:09:50;;;;;;;4.90;3.40;;;5.70;99.90;;;;;;5071491;28;20031;-53
2022/02/15 10:12:16;;;;;;;5.53;3.00;;;5.70;99.90;;;;;;5089271;28;20074;-57
2022/02/15 10:14:44;;;;;;;7.10;3.60;;;5.70;99.90;;;;;;5089551;28;20031;-58
2022/02/15 10:17:15;;;;;;;4.05;2.72;;;5.70;99.90;;;;;;5089235;28;20421;-56
2022/02/15 10:19:42;;;;;;;6.15;3.10;;;5.70;99.90;;;;;;5089339;28;20414;-56
2022/02/15 10:22:07;;;;;;;3.22;2.55;;;5.70;99.90;;;;;;5089221;28;20396;-55
2022/02/15 10:24:38;;;;;;;2.67;2.00;;;5.70;99.90;;;;;;5087903;28;20032;-56
2022/02/15 10:27:07;;;;;;;7.05;2.42;;;5.70;99.90;;;;;;5089605;28;20024;-54
2022/02/15 10:29:37;;;;;;;2.88;2.05;;;5.70;99.90;;;;;;5111668;28;20038;-58
2022/02/15 10:32:05;;;;;;;3.88;2.05;;;5.70;99.90;;;;;;5094346;28;20016;-54
2022/02/15 10:34:32;;;;;;;3.15;1.92;;;5.70;99.90;;;;;;5113684;28;20035;-54
2022/02/15 10:37:00;;;;;;;4.18;2.10;;;5.70;99.90;;;;;;5112025;28;20035;-54
2022/02/15 10:39:39;;;;;;;4.18;2.05;;;5.70;99.90;;;;;;5113759;28;20024;-52
2022/02/15 10:42:16;;;;;;;3.42;1.90;;;5.70;99.90;;;;;;5113475;28;20031;-55
2022/02/15 10:44:49;;;;;;;3.35;2.63;;;5.70;99.90;;;;;;5112364;28;20055;-57
2022/02/15 10:47:15;;;;;;;4.82;2.08;;;5.70;99.90;;;;;;5073260;28;20035;-55
2022/02/15 10:49:42;;;;;;;9.05;2.47;;;5.80;99.90;;;;;;5073321;28;20423;-54
2022/02/15 10:52:09;;;;;;;3.35;3.05;;;5.80;99.90;;;;;;5093619;28;20052;-56
2022/02/15 10:54:36;;;;;;;6.40;3.28;;;5.80;99.90;;;;;;5093998;28;20259;-58
2022/02/15 10:57:02;;;;;;;8.93;3.78;;;5.90;99.90;;;;;;5092584;28;20016;-57
2022/02/15 10:59:32;;;;;;;5.55;4.18;;;5.90;99.90;;;;;;5098546;28;20030;-57
2022/02/15 11:02:00;;;;;;;7.22;4.07;;;6.00;99.90;;;;;;5101217;28;20061;-59
2022/02/15 11:04:30;;;;;;;5.72;4.70;;;6.10;99.90;;;;;;5097699;28;20034;-54
2022/02/15 11:06:55;;;;;;;6.30;4.72;;;6.20;99.90;;;;;;5093127;28;20024;-56
2022/02/15 11:09:26;;;;;;;8.65;5.70;;;6.30;99.90;;;;;;5092549;28;20521;-53
2022/02/15 11:12:24;;;;;;;7.53;5.93;;;6.50;99.90;;;;;;5092937;28;20020;-57
2022/02/15 11:14:52;;;;;;;10.68;5.65;;;6.70;99.90;;;;;;5092538;28;20403;-57
2022/02/15 11:17:18;;;;;;;9.98;5.18;;;6.80;99.90;;;;;;5092561;28;20081;-56
2022/02/15 11:19:44;;;;;;;7.95;5.00;;;6.90;99.90;;;;;;5091832;28;20031;-57
2022/02/15 11:22:20;;;;;;;5.50;4.85;;;7.10;99.90;;;;;;5097296;28;20471;-56
2022/02/15 11:24:45;;;;;;;6.78;4.65;;;7.20;99.90;;;;;;5103850;28;20043;-58
2022/02/15 11:27:19;;;;;;;5.40;4.13;;;7.30;99.90;;;;;;5093117;28;20070;-57
2022/02/15 11:29:50;;;;;;;6.07;4.43;;;7.50;99.90;;;;;;5092190;28;20036;-59
2022/02/15 11:32:23;;;;;;;6.50;4.32;;;7.50;99.90;;;;;;5091826;28;20082;-57
2022/02/15 11:34:49;;;;;;;5.45;4.60;;;7.50;99.90;;;;;;5085243;28;20488;-57
2022/02/15 11:37:20;;;;;;;5.93;4.80;;;7.50;99.90;;;;;;5069960;28;20748;-56
2022/02/15 11:39:56;;;;;;;8.20;5.15;;;7.50;99.90;;;;;;5070937;28;20031;-57
2022/02/15 11:42:22;;;;;;;9.82;6.38;;;7.60;99.90;;;;;;5071712;28;20039;-53
2022/02/15 11:44:48;;;;;;;6.50;4.93;;;7.60;99.90;;;;;;5071767;28;20395;-56
2022/02/15 11:47:20;;;;;;;9.90;5.90;;;7.70;99.90;;;;;;5071860;28;20383;-58
2022/02/15 11:49:49;;;;;;;7.55;5.10;;;7.80;99.90;;;;;;5071496;28;20027;-54
2022/02/15 11:52:15;;;;;;;5.90;5.15;;;7.80;99.90;;;;;;5071016;28;20032;-59
2022/02/15 11:54:40;;;;;;;9.25;5.32;;;7.80;99.90;;;;;;5071694;28;20408;-56
2022/02/15 11:57:06;;;;;;;8.75;5.80;;;7.80;99.90;;;;;;5071344;28;20081;-55
2022/02/15 11:59:32;;;;;;;7.20;5.35;;;7.90;99.90;;;;;;5071049;28;20027;-54
2022/02/15 12:02:00;;;;;;;7.90;5.38;;;8.00;99.90;;;;;;5071246;28;20029;-59
2022/02/15 12:04:27;;;;;;;8.18;5.80;;;8.00;99.90;;;;;;5071318;28;20027;-57
2022/02/15 12:06:53;;;;;;;6.88;5.82;;;8.00;99.90;;;;;;5071082;28;20441;-58
2022/02/15 12:09:29;;;;;;;9.32;5.10;;;8.00;99.90;;;;;;5071362;28;20033;-57
2022/02/15 12:11:56;;;;;;;7.60;4.85;;;7.90;99.90;;;;;;5071241;28;20028;-57
2022/02/15 12:14:23;;;;;;;6.55;4.70;;;7.80;99.90;;;;;;5052854;28;20028;-55
2022/02/15 12:16:52;;;;;;;6.18;5.20;;;7.70;99.90;;;;;;5071018;28;20098;-58
2022/02/15 12:19:24;;;;;;;7.15;4.93;;;7.60;99.90;;;;;;5052699;28;20503;-54
2022/02/15 12:21:51;;;;;;;8.52;4.82;;;7.50;99.90;;;;;;5052673;28;20028;-56
2022/02/15 12:24:17;;;;;;;6.85;4.38;;;7.50;99.90;;;;;;5071126;28;20500;-57
2022/02/15 12:26:43;;;;;;;10.52;5.53;;;7.50;99.90;;;;;;5053050;28;20024;-58
2022/02/15 12:29:11;;;;;;;9.90;6.20;;;7.40;99.90;;;;;;5084804;28;20491;-57
2022/02/15 12:31:37;;;;;;;9.68;6.68;;;7.50;99.90;;;;;;5090795;28;20036;-58
2022/02/15 12:34:04;;;;;;;10.25;7.18;;;7.50;99.90;;;;;;5090519;28;20089;-58
2022/02/15 12:36:31;;;;;;;9.50;7.68;;;7.50;99.90;;;;;;5071650;28;20020;-57
2022/02/15 12:38:57;;;;;;;10.68;7.13;;;7.60;99.90;;;;;;5091320;28;20356;-58
2022/02/15 12:41:23;;;;;;;9.30;7.25;;;7.60;99.90;;;;;;5090694;28;20058;-56
2022/02/15 12:43:56;;;;;;;10.30;8.80;;;7.60;99.90;;;;;;5090302;28;20020;-57
2022/02/15 12:46:22;;;;;;;11.00;8.25;;;7.50;99.90;;;;;;5089996;28;20095;-58
2022/02/15 12:48:48;;;;;;;12.77;9.45;;;7.50;99.90;;;;;;5090535;28;20115;-57
2022/02/15 12:51:14;;;;;;;17.77;10.00;;;7.50;99.90;;;;;;5090365;28;20540;-54
2022/02/15 12:53:51;;;;;;;13.75;10.60;;;7.50;99.90;;;;;;5090345;28;20024;-57
2022/02/15 12:56:28;;;;;;;11.95;10.65;;;7.40;99.90;;;;;;5090508;28;20491;-56
2022/02/15 12:58:59;;;;;;;12.55;10.25;;;7.40;99.90;;;;;;5090510;28;20020;-57
2022/02/15 13:01:28;;;;;;;13.73;10.32;;;7.40;99.90;;;;;;5091036;28;20024;-56